createdAt,value
2022-11-09T00:01:03.538Z,34.20
2022-11-09T00:03:30.332Z,27.50
2022-11-09T00:05:58.502Z,30.07
2022-11-09T00:08:26.174Z,32.25
2022-11-09T00:10:55.579Z,31.85
2022-11-09T00:13:22.910Z,31.58
2022-11-09T00:15:50.216Z,34.83
2022-11-09T00:18:16.983Z,36.37
2022-11-09T00:20:47.787Z,30.23
2022-11-09T00:23:16.057Z,32.63
2022-11-09T00:25:43.075Z,31.23
2022-11-09T00:28:09.994Z,28.55
2022-11-09T00:30:36.739Z,33.43
2022-11-09T00:33:03.558Z,27.55
2022-11-09T00:35:30.270Z,27.48
2022-11-09T00:37:57.074Z,26.30
2022-11-09T00:40:23.915Z,30.83
2022-11-09T00:42:50.683Z,26.97
2022-11-09T00:45:17.653Z,30.08
2022-11-09T00:47:44.615Z,26.85
2022-11-09T00:50:11.358Z,26.75
2022-11-09T00:52:38.483Z,27.20
2022-11-09T00:55:05.744Z,30.93
2022-11-09T00:57:32.596Z,29.30
2022-11-09T00:59:59.520Z,30.65
2022-11-09T01:02:26.222Z,31.50
2022-11-09T01:04:53.050Z,28.75
2022-11-09T01:07:19.804Z,26.53
2022-11-09T01:09:46.630Z,28.60
2022-11-09T01:12:13.445Z,29.23
2022-11-09T01:14:40.184Z,26.20
2022-11-09T01:17:07.183Z,27.48
2022-11-09T01:19:34.671Z,28.23
2022-11-09T01:22:01.504Z,27.80
2022-11-09T01:24:28.199Z,29.40
2022-11-09T01:26:55.018Z,27.67
2022-11-09T01:29:21.820Z,27.40
2022-11-09T01:31:49.007Z,28.17
2022-11-09T01:34:17.548Z,26.17
2022-11-09T01:36:44.472Z,26.73
2022-11-09T01:39:11.730Z,31.73
2022-11-09T01:41:38.439Z,27.27
2022-11-09T01:44:14.320Z,29.17
2022-11-09T01:46:58.249Z,26.37
2022-11-09T01:49:41.145Z,26.55
2022-11-09T01:52:14.264Z,27.58
2022-11-09T01:54:45.639Z,29.58
2022-11-09T01:57:18.613Z,23.60
2022-11-09T01:59:52.660Z,24.12
2022-11-09T02:02:20.250Z,28.30
2022-11-09T02:05:11.110Z,28.85
2022-11-09T02:07:40.165Z,23.17
2022-11-09T02:10:29.108Z,27.07
2022-11-09T02:12:58.874Z,27.73
2022-11-09T02:15:26.666Z,29.95
2022-11-09T02:17:54.683Z,29.23
2022-11-09T02:20:22.950Z,28.08
2022-11-09T02:22:49.793Z,26.93
2022-11-09T02:25:17.653Z,26.55
2022-11-09T02:27:45.626Z,25.90
2022-11-09T02:30:14.405Z,27.98
2022-11-09T02:32:41.352Z,26.48
2022-11-09T02:35:08.550Z,28.40
2022-11-09T02:37:39.444Z,25.23
2022-11-09T02:40:30.012Z,28.48
2022-11-09T02:42:57.435Z,25.65
2022-11-09T02:45:24.228Z,27.23
2022-11-09T02:47:51.099Z,26.73
2022-11-09T02:50:18.493Z,28.05
2022-11-09T02:52:45.483Z,27.23
2022-11-09T02:55:12.474Z,28.80
2022-11-09T02:57:39.223Z,23.27
2022-11-09T03:00:07.211Z,25.30
2022-11-09T03:02:34.638Z,24.87
2022-11-09T03:05:01.380Z,23.35
2022-11-09T03:07:28.171Z,27.37
2022-11-09T03:09:55.202Z,26.10
2022-11-09T03:12:31.610Z,27.23
2022-11-09T03:15:05.436Z,22.77
2022-11-09T03:17:32.897Z,25.12
2022-11-09T03:19:59.762Z,22.90
2022-11-09T03:22:27.041Z,26.27
2022-11-09T03:24:53.898Z,24.30
2022-11-09T03:27:20.634Z,21.58
2022-11-09T03:29:47.374Z,25.45
2022-11-09T03:32:14.187Z,22.65
2022-11-09T03:34:41.032Z,25.25
2022-11-09T03:37:07.827Z,22.77
2022-11-09T03:39:34.686Z,24.33
2022-11-09T03:42:01.488Z,23.40
2022-11-09T03:44:28.236Z,24.17
2022-11-09T03:46:54.993Z,22.08
2022-11-09T03:49:23.819Z,21.53
2022-11-09T03:51:51.568Z,24.37
2022-11-09T03:54:18.302Z,24.37
2022-11-09T03:56:45.225Z,19.83
2022-11-09T03:59:12.051Z,23.33
2022-11-09T04:01:38.891Z,23.87
2022-11-09T04:04:05.905Z,20.70
2022-11-09T04:06:32.890Z,24.80
2022-11-09T04:08:59.842Z,21.98
2022-11-09T04:11:26.608Z,20.10
2022-11-09T04:13:53.568Z,23.07
2022-11-09T04:16:20.280Z,23.02
2022-11-09T04:18:47.378Z,20.62
2022-11-09T04:21:14.728Z,21.83
2022-11-09T04:23:41.467Z,19.50
2022-11-09T04:26:08.561Z,22.27
2022-11-09T04:28:35.353Z,19.73
2022-11-09T04:31:02.799Z,21.23
2022-11-09T04:33:29.748Z,20.25
2022-11-09T04:36:01.657Z,18.27
2022-11-09T04:38:28.645Z,20.73
2022-11-09T04:40:55.384Z,20.02
2022-11-09T04:43:22.373Z,20.15
2022-11-09T04:45:49.355Z,16.95
2022-11-09T04:48:16.135Z,20.67
2022-11-09T04:50:42.883Z,19.47
2022-11-09T04:53:15.527Z,20.27
2022-11-09T04:55:42.453Z,21.17
2022-11-09T04:58:10.021Z,18.50
2022-11-09T05:00:37.257Z,15.75
2022-11-09T05:03:06.335Z,18.90
2022-11-09T05:05:34.689Z,19.00
2022-11-09T05:08:01.942Z,20.27
2022-11-09T05:10:28.801Z,19.85
2022-11-09T05:13:00.546Z,17.92
2022-11-09T05:15:28.147Z,18.53
2022-11-09T05:17:55.389Z,18.25
2022-11-09T05:20:22.593Z,17.00
2022-11-09T05:23:07.994Z,19.12
2022-11-09T05:25:35.196Z,18.45
2022-11-09T05:28:02.016Z,18.87
2022-11-09T05:30:28.893Z,19.42
2022-11-09T05:32:55.672Z,18.30
2022-11-09T05:35:22.765Z,16.67
2022-11-09T05:37:51.134Z,20.12
2022-11-09T05:40:21.705Z,17.93
2022-11-09T05:42:48.550Z,20.12
2022-11-09T05:45:41.344Z,16.95
2022-11-09T05:48:05.609Z,18.05
2022-11-09T05:50:32.452Z,19.40
2022-11-09T05:53:00.481Z,18.80
2022-11-09T05:55:27.592Z,21.42
2022-11-09T05:57:55.138Z,17.10
2022-11-09T06:00:22.333Z,20.35
2022-11-09T06:02:50.183Z,21.35
2022-11-09T06:05:17.615Z,24.03
2022-11-09T06:07:44.315Z,23.95
2022-11-09T06:10:11.730Z,21.62
2022-11-09T06:12:38.696Z,21.23
2022-11-09T06:15:06.151Z,22.15
2022-11-09T06:17:32.959Z,22.17
2022-11-09T06:20:00.297Z,22.52
2022-11-09T06:22:27.260Z,20.77
2022-11-09T06:24:54.011Z,19.90
2022-11-09T06:27:20.826Z,21.08
2022-11-09T06:29:47.839Z,22.80
2022-11-09T06:32:14.659Z,21.23
2022-11-09T06:34:43.296Z,22.25
2022-11-09T06:37:10.095Z,21.05
2022-11-09T06:39:36.814Z,20.65
2022-11-09T06:42:03.796Z,22.37
2022-11-09T06:44:30.589Z,21.98
2022-11-09T06:46:57.324Z,24.30
2022-11-09T06:49:24.086Z,21.85
2022-11-09T06:51:50.952Z,20.58
2022-11-09T06:54:17.713Z,23.43
2022-11-09T06:56:44.480Z,18.10
2022-11-09T06:59:11.214Z,18.70
2022-11-09T07:01:38.114Z,19.42
2022-11-09T07:04:05.066Z,21.75
2022-11-09T07:06:31.915Z,21.00
2022-11-09T07:08:58.775Z,24.33
2022-11-09T07:11:25.592Z,24.27
2022-11-09T07:13:57.222Z,23.30
2022-11-09T07:16:24.598Z,24.40
2022-11-09T07:18:51.432Z,22.37
2022-11-09T07:21:18.178Z,24.17
2022-11-09T07:23:48.226Z,25.67
2022-11-09T07:26:16.150Z,24.20
2022-11-09T07:28:43.737Z,20.08
2022-11-09T07:31:10.737Z,24.57
2022-11-09T07:33:40.615Z,24.45
2022-11-09T07:36:07.885Z,23.40
2022-11-09T07:38:34.775Z,22.75
2022-11-09T07:41:01.893Z,22.45
2022-11-09T07:43:29.518Z,27.30
2022-11-09T07:45:57.051Z,23.42
2022-11-09T07:48:24.156Z,27.27
2022-11-09T07:50:50.941Z,23.85
2022-11-09T07:53:18.207Z,27.70
2022-11-09T07:55:45.185Z,25.30
2022-11-09T07:58:15.120Z,31.33
2022-11-09T08:00:43.372Z,44.30
2022-11-09T08:03:10.680Z,26.70
2022-11-09T08:05:37.469Z,28.35
2022-11-09T08:08:12.402Z,24.80
2022-11-09T08:10:40.019Z,28.70
2022-11-09T08:13:11.572Z,28.25
2022-11-09T08:15:39.418Z,26.15
2022-11-09T08:18:08.843Z,24.10
2022-11-09T08:20:35.879Z,23.70
2022-11-09T08:23:04.919Z,26.37
2022-11-09T08:25:34.002Z,27.40
2022-11-09T08:28:01.055Z,25.17
2022-11-09T08:30:28.048Z,26.17
2022-11-09T08:32:55.180Z,24.77
2022-11-09T08:35:23.342Z,24.52
2022-11-09T08:37:52.122Z,27.23
2022-11-09T08:40:25.381Z,29.37
2022-11-09T08:42:52.891Z,27.02
2022-11-09T08:45:20.430Z,30.53
2022-11-09T08:47:47.807Z,32.38
2022-11-09T08:50:15.562Z,29.05
2022-11-09T08:52:42.378Z,29.40
2022-11-09T08:55:09.506Z,28.25
2022-11-09T08:57:36.389Z,30.07
2022-11-09T09:00:04.826Z,27.55
2022-11-09T09:02:31.759Z,25.73
2022-11-09T09:04:58.546Z,30.40
2022-11-09T09:07:25.826Z,32.35
2022-11-09T09:09:52.551Z,31.13
2022-11-09T09:12:19.524Z,32.10
2022-11-09T09:14:46.248Z,29.23
2022-11-09T09:17:13.173Z,28.92
2022-11-09T09:19:40.181Z,29.55
2022-11-09T09:22:07.070Z,30.33
2022-11-09T09:24:34.049Z,40.03
2022-11-09T09:27:00.955Z,33.25
2022-11-09T09:29:28.175Z,38.22
2022-11-09T09:31:54.957Z,35.47
2022-11-09T09:34:21.849Z,37.53
2022-11-09T09:36:48.688Z,34.85
2022-11-09T09:39:15.873Z,31.45
2022-11-09T09:41:55.647Z,39.03
2022-11-09T09:44:43.045Z,44.28
2022-11-09T09:47:30.353Z,37.47
2022-11-09T09:50:10.154Z,38.00
2022-11-09T09:53:21.935Z,35.45
2022-11-09T09:55:45.760Z,37.15
2022-11-09T09:58:19.235Z,41.67
2022-11-09T10:00:48.411Z,36.30
2022-11-09T10:03:19.666Z,42.40
2022-11-09T10:06:18.990Z,39.33
2022-11-09T10:08:57.628Z,43.63
2022-11-09T10:11:43.620Z,41.78
2022-11-09T10:14:29.612Z,39.57
2022-11-09T10:17:05.485Z,42.80
2022-11-09T10:19:56.151Z,42.17
2022-11-09T10:23:00.604Z,49.65
2022-11-09T10:25:50.769Z,43.70
2022-11-09T10:28:17.898Z,46.43
2022-11-09T10:30:45.085Z,43.15
2022-11-09T10:33:11.712Z,41.58
2022-11-09T10:35:45.197Z,46.53
2022-11-09T10:38:18.477Z,48.00
2022-11-09T10:40:51.687Z,45.57
2022-11-09T10:43:18.467Z,50.78
2022-11-09T10:45:46.073Z,42.45
2022-11-09T10:48:14.167Z,46.65
2022-11-09T10:50:47.896Z,54.42
2022-11-09T10:53:22.130Z,47.53
2022-11-09T10:55:55.122Z,48.17
2022-11-09T10:58:35.186Z,48.70
2022-11-09T11:01:13.373Z,54.00
2022-11-09T11:03:41.156Z,48.63
2022-11-09T11:06:17.189Z,48.93
2022-11-09T11:08:52.542Z,47.35
2022-11-09T11:11:36.992Z,46.03
2022-11-09T11:14:28.918Z,48.03
2022-11-09T11:16:56.278Z,45.42
2022-11-09T11:19:36.715Z,54.60
2022-11-09T11:22:12.533Z,54.67
2022-11-09T11:24:47.968Z,50.25
2022-11-09T11:27:19.502Z,53.30
2022-11-09T11:29:59.991Z,55.17
2022-11-09T11:32:26.950Z,54.47
2022-11-09T11:35:00.388Z,52.78
2022-11-09T11:37:54.388Z,58.65
2022-11-09T11:40:38.140Z,49.20
2022-11-09T11:43:27.406Z,51.78
2022-11-09T11:46:14.296Z,56.47
2022-11-09T11:48:57.663Z,50.15
2022-11-09T11:51:39.866Z,49.47
2022-11-09T11:54:18.437Z,52.10
2022-11-09T11:57:01.229Z,54.45
2022-11-09T11:59:31.239Z,56.63
2022-11-09T12:02:11.479Z,53.60
2022-11-09T12:04:54.220Z,50.38
2022-11-09T12:07:35.500Z,50.85
2022-11-09T12:10:17.487Z,53.80
2022-11-09T12:13:10.179Z,53.33
2022-11-09T12:15:42.785Z,54.83
2022-11-09T12:18:36.093Z,52.58
2022-11-09T12:21:23.812Z,50.92
2022-11-09T12:24:16.308Z,50.17
2022-11-09T12:27:31.175Z,49.50
2022-11-09T12:30:06.317Z,51.13
2022-11-09T12:32:56.237Z,52.95
2022-11-09T12:35:34.333Z,49.33
2022-11-09T12:38:23.039Z,55.70
2022-11-09T12:41:02.249Z,52.40
2022-11-09T12:43:49.809Z,53.38
2022-11-09T12:46:20.992Z,55.67
2022-11-09T12:48:48.829Z,48.67
2022-11-09T12:51:18.530Z,52.50
2022-11-09T12:53:47.010Z,53.57
2022-11-09T12:56:19.975Z,49.70
2022-11-09T12:58:47.542Z,50.10
2022-11-09T13:01:34.193Z,53.47
2022-11-09T13:04:06.131Z,52.25
2022-11-09T13:06:33.828Z,51.37
2022-11-09T13:09:23.219Z,49.30
2022-11-09T13:11:52.773Z,46.90
2022-11-09T13:14:22.435Z,56.70
2022-11-09T13:16:55.912Z,52.50
2022-11-09T13:19:34.864Z,50.83
2022-11-09T13:22:23.018Z,54.47
2022-11-09T13:25:04.505Z,50.15
2022-11-09T13:27:40.640Z,55.72
2022-11-09T13:30:25.637Z,56.55
2022-11-09T13:33:08.051Z,56.97
2022-11-09T13:35:40.493Z,55.97
2022-11-09T13:38:21.818Z,59.28
2022-11-09T13:40:50.090Z,62.15
2022-11-09T13:43:37.787Z,61.50
2022-11-09T13:46:22.220Z,64.03
2022-11-09T13:48:50.839Z,56.72
2022-11-09T13:51:24.493Z,57.03
2022-11-09T13:53:57.455Z,52.13
2022-11-09T13:56:29.962Z,63.65
2022-11-09T13:59:02.855Z,59.67
2022-11-09T14:01:46.381Z,59.70
2022-11-09T14:04:39.895Z,62.22
2022-11-09T14:07:10.501Z,70.95
2022-11-09T14:09:46.449Z,72.75
2022-11-09T14:12:22.266Z,78.10
2022-11-09T14:14:49.258Z,64.85
2022-11-09T14:17:55.142Z,71.22
2022-11-09T14:20:33.137Z,66.90
2022-11-09T14:23:01.862Z,68.43
2022-11-09T14:25:35.553Z,65.87
2022-11-09T14:28:02.359Z,69.25
2022-11-09T14:30:31.204Z,68.50
2022-11-09T14:32:59.203Z,64.45
2022-11-09T14:35:26.205Z,73.30
2022-11-09T14:37:55.292Z,66.00
2022-11-09T14:40:25.940Z,69.55
2022-11-09T14:43:16.605Z,67.65
2022-11-09T14:45:56.147Z,66.32
2022-11-09T14:48:23.835Z,67.47
2022-11-09T14:50:56.759Z,66.63
2022-11-09T14:53:33.480Z,70.12
2022-11-09T14:56:03.641Z,67.10
2022-11-09T14:58:34.485Z,69.70
2022-11-09T15:01:22.142Z,73.05
2022-11-09T15:04:20.988Z,66.33
2022-11-09T15:06:54.618Z,60.38
2022-11-09T15:09:31.894Z,66.95
2022-11-09T15:11:58.910Z,62.05
2022-11-09T15:14:30.128Z,64.65
2022-11-09T15:17:01.039Z,63.33
2022-11-09T15:19:37.143Z,60.72
2022-11-09T15:22:06.596Z,70.37
2022-11-09T15:24:47.518Z,62.40
2022-11-09T15:27:30.846Z,64.85
2022-11-09T15:29:58.937Z,66.67
2022-11-09T15:32:25.861Z,67.28
2022-11-09T15:34:56.333Z,69.93
2022-11-09T15:37:46.701Z,62.78
2022-11-09T15:40:19.676Z,61.72
2022-11-09T15:42:46.615Z,65.60
2022-11-09T15:45:17.180Z,61.00
2022-11-09T15:47:55.710Z,59.22
2022-11-09T15:50:26.193Z,59.47
2022-11-09T15:53:00.484Z,55.78
2022-11-09T15:55:27.989Z,65.87
2022-11-09T15:57:54.946Z,63.38
2022-11-09T16:00:22.916Z,63.50
2022-11-09T16:02:50.625Z,55.12
2022-11-09T16:05:18.847Z,59.00
2022-11-09T16:07:54.010Z,54.07
2022-11-09T16:10:23.511Z,56.88
2022-11-09T16:12:53.395Z,52.62
2022-11-09T16:15:20.553Z,51.78
2022-11-09T16:17:49.728Z,54.60
2022-11-09T16:20:18.859Z,70.17
2022-11-09T16:22:46.828Z,81.10
2022-11-09T16:25:14.972Z,61.65
2022-11-09T16:27:50.061Z,57.95
2022-11-09T16:30:20.353Z,50.03
2022-11-09T16:32:47.642Z,49.97
2022-11-09T16:35:26.523Z,54.35
2022-11-09T16:37:56.445Z,48.63
2022-11-09T16:40:23.779Z,50.53
2022-11-09T16:42:52.037Z,54.30
2022-11-09T16:45:20.152Z,54.50
2022-11-09T16:47:54.258Z,59.45
2022-11-09T16:50:21.640Z,53.97
2022-11-09T16:52:49.276Z,54.40
2022-11-09T16:55:16.677Z,49.13
2022-11-09T16:57:47.555Z,52.93
2022-11-09T17:00:17.151Z,53.28
2022-11-09T17:02:45.091Z,52.13
2022-11-09T17:05:14.391Z,51.17
2022-11-09T17:07:43.091Z,59.53
2022-11-09T17:10:11.467Z,45.33
2022-11-09T17:12:39.971Z,51.55
2022-11-09T17:15:10.916Z,55.97
2022-11-09T17:17:39.880Z,49.85
2022-11-09T17:20:10.325Z,52.62
2022-11-09T17:22:43.101Z,47.50
2022-11-09T17:25:13.990Z,52.62
2022-11-09T17:27:42.755Z,50.60
2022-11-09T17:30:11.869Z,51.67
2022-11-09T17:32:41.228Z,48.15
2022-11-09T17:35:08.868Z,44.97
2022-11-09T17:37:38.203Z,44.83
2022-11-09T17:40:07.141Z,48.92
2022-11-09T17:42:36.035Z,54.90
2022-11-09T17:45:07.181Z,55.30
2022-11-09T17:47:35.421Z,62.30
2022-11-09T17:50:03.975Z,62.53
2022-11-09T17:52:31.689Z,56.83
2022-11-09T17:55:00.057Z,57.78
2022-11-09T17:57:29.594Z,60.65
2022-11-09T17:59:57.574Z,58.20
2022-11-09T18:02:25.741Z,53.65
2022-11-09T18:04:53.933Z,52.92
2022-11-09T18:07:22.085Z,56.90
2022-11-09T18:09:51.052Z,62.13
2022-11-09T18:12:19.292Z,61.30
2022-11-09T18:14:47.019Z,60.53
2022-11-09T18:17:15.444Z,68.65
2022-11-09T18:19:43.628Z,63.33
2022-11-09T18:22:13.002Z,67.93
2022-11-09T18:24:40.635Z,71.93
2022-11-09T18:27:09.290Z,64.80
2022-11-09T18:29:37.824Z,63.67
2022-11-09T18:32:06.449Z,60.90
2022-11-09T18:34:35.352Z,67.12
2022-11-09T18:37:02.497Z,60.63
2022-11-09T18:39:29.666Z,70.97
2022-11-09T18:41:57.081Z,62.42
2022-11-09T18:44:24.403Z,58.65
2022-11-09T18:46:51.848Z,55.70
2022-11-09T18:49:20.418Z,56.27
2022-11-09T18:51:47.812Z,58.50
2022-11-09T18:54:15.541Z,54.97
2022-11-09T18:56:42.692Z,58.97
2022-11-09T18:59:12.871Z,60.50
2022-11-09T19:01:40.455Z,56.40
2022-11-09T19:04:07.732Z,58.67
2022-11-09T19:06:35.757Z,59.20
2022-11-09T19:09:21.824Z,62.40
2022-11-09T19:11:48.749Z,58.20
2022-11-09T19:14:16.379Z,62.97
2022-11-09T19:16:43.891Z,61.60
2022-11-09T19:19:15.191Z,62.83
2022-11-09T19:21:48.323Z,64.10
2022-11-09T19:24:17.742Z,63.87
2022-11-09T19:26:45.551Z,64.87
2022-11-09T19:29:14.652Z,64.95
2022-11-09T19:31:43.839Z,70.75
2022-11-09T19:34:13.528Z,64.90
2022-11-09T19:36:43.159Z,65.75
2022-11-09T19:39:11.048Z,71.47
2022-11-09T19:41:38.341Z,74.40
2022-11-09T19:44:06.872Z,69.32
2022-11-09T19:46:36.207Z,67.37
2022-11-09T19:49:05.508Z,68.72
2022-11-09T19:51:33.149Z,63.03
2022-11-09T19:54:01.613Z,74.18
2022-11-09T19:56:31.744Z,66.28
2022-11-09T19:59:01.373Z,74.37
2022-11-09T20:01:29.291Z,69.60
2022-11-09T20:03:58.254Z,68.27
2022-11-09T20:06:27.097Z,70.05
2022-11-09T20:08:54.768Z,74.70
2022-11-09T20:11:43.105Z,71.65
2022-11-09T20:14:10.985Z,66.37
2022-11-09T20:16:38.986Z,69.70
2022-11-09T20:19:09.775Z,65.70
2022-11-09T20:21:38.031Z,67.20
2022-11-09T20:24:05.513Z,62.25
2022-11-09T20:26:33.573Z,66.40
2022-11-09T20:29:02.577Z,64.23
2022-11-09T20:31:29.783Z,64.68
2022-11-09T20:33:57.194Z,66.28
2022-11-09T20:36:24.504Z,63.65
2022-11-09T20:38:52.353Z,67.85
2022-11-09T20:41:24.262Z,58.90
2022-11-09T20:43:52.826Z,61.92
2022-11-09T20:46:22.854Z,67.37
2022-11-09T20:48:55.858Z,63.63
2022-11-09T20:51:24.479Z,64.10
2022-11-09T20:53:51.949Z,74.17
2022-11-09T20:56:21.424Z,62.22
2022-11-09T20:58:55.175Z,64.93
2022-11-09T21:01:27.200Z,63.70
2022-11-09T21:03:55.697Z,67.43
2022-11-09T21:06:23.005Z,67.27
2022-11-09T21:08:56.050Z,67.93
2022-11-09T21:11:24.052Z,67.75
2022-11-09T21:13:52.781Z,66.40
2022-11-09T21:16:22.216Z,64.35
2022-11-09T21:18:49.844Z,61.17
2022-11-09T21:21:22.987Z,70.75
2022-11-09T21:24:09.119Z,65.28
2022-11-09T21:26:54.686Z,66.03
2022-11-09T21:29:43.058Z,67.07
2022-11-09T21:32:11.158Z,65.17
2022-11-09T21:34:38.527Z,63.25
2022-11-09T21:37:05.910Z,63.95
2022-11-09T21:39:33.358Z,71.12
2022-11-09T21:42:00.973Z,63.60
2022-11-09T21:44:32.718Z,71.97
2022-11-09T21:47:00.029Z,64.70
2022-11-09T21:49:27.191Z,66.93
2022-11-09T21:51:54.600Z,65.65
2022-11-09T21:54:22.441Z,59.92
2022-11-09T21:56:50.684Z,67.83
2022-11-09T21:59:18.484Z,64.57
2022-11-09T22:01:45.531Z,62.85
2022-11-09T22:04:12.937Z,65.07
2022-11-09T22:06:41.385Z,62.10
2022-11-09T22:09:13.872Z,64.07
2022-11-09T22:11:59.488Z,63.85
2022-11-09T22:14:45.153Z,60.35
2022-11-09T22:17:12.609Z,63.70
2022-11-09T22:19:59.241Z,62.17
2022-11-09T22:22:30.777Z,63.20
2022-11-09T22:24:57.851Z,64.22
2022-11-09T22:27:24.605Z,67.05
2022-11-09T22:29:51.584Z,64.65
2022-11-09T22:32:18.457Z,66.80
2022-11-09T22:34:45.323Z,63.63
2022-11-09T22:37:12.154Z,66.97
2022-11-09T22:39:42.961Z,59.40
2022-11-09T22:42:12.794Z,67.80
2022-11-09T22:44:39.547Z,61.88
2022-11-09T22:47:06.352Z,62.93
2022-11-09T22:49:34.295Z,69.12
2022-11-09T22:52:01.058Z,70.05
2022-11-09T22:54:27.989Z,62.33
2022-11-09T22:56:54.883Z,67.72
2022-11-09T22:59:21.662Z,68.93
2022-11-09T23:01:48.560Z,68.68
2022-11-09T23:04:15.264Z,64.10
2022-11-09T23:06:42.108Z,73.50
2022-11-09T23:09:09.161Z,66.85
2022-11-09T23:11:36.024Z,68.60
2022-11-09T23:14:02.815Z,73.47
2022-11-09T23:16:29.634Z,71.75
2022-11-09T23:18:56.588Z,66.75
2022-11-09T23:21:36.043Z,70.90
2022-11-09T23:24:05.363Z,69.60
2022-11-09T23:26:33.479Z,70.40
2022-11-09T23:29:00.881Z,67.72
2022-11-09T23:31:27.763Z,64.57
2022-11-09T23:33:56.579Z,70.40
2022-11-09T23:36:24.700Z,70.77
2022-11-09T23:38:53.960Z,72.35
2022-11-09T23:41:20.823Z,72.70
2022-11-09T23:43:49.700Z,74.80
2022-11-09T23:46:17.930Z,67.80
2022-11-09T23:48:45.304Z,70.13
2022-11-09T23:51:12.100Z,70.32
2022-11-09T23:53:39.457Z,73.70
2022-11-09T23:56:11.829Z,71.53
2022-11-09T23:58:38.708Z,74.50
